Portada
METAR-TAF:

METAR-TAF

Aeroports :

Hannibal, Missouri, Estats Units d'Amèrica

latitud: 39-43-31N, longitud: 091-26-38W, altitud: 234 m

Observació

L'informe es va fer fa 29 minuts, a les 19:55 UTC
Vent 6 kt del Est
Temperatura 2°C
Humitat 64%
Pressió 1021 hPa
Visibilitat: 16.1 km
Cel clar

METAR: KHAE 221955Z AUTO 08006KT 10SM CLR 02/M04 A3014 RMK AO2

Hora: 14:24 (20:24 UTC)


TAF: manca

Observacions i pronòstics meteorològics de més de 4000 aeroports (METAR i TAF).

Les estacions disponibles són els punts grocs i vermells al mapa.

Posi el ratolí al punt desitjat per veure el nom de l'estació.

Feu clic per veure les observacions i els pronòstics meteorològics.

Per canviar el mapa: feu clic els botons verds amb una creu de color negre per apropar; al botó verd amb un guió per allunyar la imatge; o en les fletxes verdes per a mapes adjacents.


METAR-TAF: